HOURLY OBS INDEX

065

Central Western Slopes - south

COWRA AIRPORT AWS

Site: 065111
Alt: 300.4m
5km SW of COWRA


  Time     Wind        Temp  DP   Baro     Rain since   Rain past  Vis(m), Cloud(base in m), Weather
  local        km/h                         9am  last   hr   10m    
Thu 09:00    C  0/  0   4.1  4.0  1029.6    0.0   0.0   0.0   0.0   ----- 
Thu 09:30    S  2/  9   6.0  5.9  1029.8    0.0   0.0   0.0   0.0   ----- 
Thu 10:00   SE  7/  9   7.7  5.3  1029.7    0.0   0.0   0.0   0.0   ----- 
Thu 10:30  SSE  7/  9   8.9  5.6  1029.6    0.0   0.0   0.0   0.0   ----- 
Thu 11:00    E  7/ 11  10.1  5.5  1029.3    0.0   0.0   0.0   0.0   ----- 
Thu 11:30  ESE  2/  7  11.4  5.7  1029.0    0.0   0.0   0.0   0.0   ----- 
Thu 12:00    S  2/  7  12.5  5.2  1028.6    0.0   0.0   0.0   0.0   ----- 
Thu 12:30    C  0/  0  13.8  5.4  1028.2    0.0   0.0   0.0   0.0   ----- 
Thu 13:00    C  0/  0  14.2  5.6  1027.8    0.0   0.0   0.0   0.0   ----- 
Thu 13:30   NW  6/  9  14.7  5.2  1027.3    0.0   0.0   0.0   0.0   ----- 
Thu 14:00  NNW  2/  7  15.9  5.2  1027.0    0.0   0.0   0.0   0.0   ----- 

DUBBO AIRPORT AWS

Site: 065070
Alt: 284.0m
4km NW of DUBBO


  Time     Wind        Temp  DP   Baro     Rain since   Rain past  Vis(m), Cloud(base in m), Weather
  local        km/h                         9am  last   hr   10m    
Thu 09:00   SE 20/ 24   8.8  4.4  1029.0    0.0   0.0   0.0   0.0   10000 
Thu 09:30   SE 20/ 24  10.3  4.7  1029.1    0.0   0.0   0.0   0.0   10000 
Thu 10:00   SE 15/ 19  11.9  5.1  1029.2    0.0   0.0   0.0   0.0   10000 
Thu 10:30   SE  9/ 17  13.2  4.9  1029.0    0.0   0.0   0.0   0.0   10000 
Thu 11:00  ESE  7/ 15  13.9  5.5  1028.7    0.0   0.0   0.0   0.0   10000 
Thu 11:30  SSE  6/ 11  15.6  6.1  1028.3    0.0   0.0   0.0   0.0   10000 
Thu 12:00   NE  6/ 11  16.6  5.3  1027.8    0.0   0.0   0.0   0.0   10000 
Thu 12:30  ESE  7/ 15  16.5  4.2  1027.5    0.0   0.0   0.0   0.0   10000 
Thu 13:00  SSE 13/ 20  16.8  2.8  1026.9    0.0   0.0   0.0   0.0   10000 
Thu 13:30  SSE 15/ 22  17.4  1.4  1026.5    0.0   0.0   0.0   0.0   10000 
Thu 14:00    S 15/ 20  17.2  1.2  1026.4    0.0   0.0   0.0   0.0   10000 

FORBES AIRPORT AWS

Site: 065103
Alt: 230.4m
34km SW of PARKES


  Time     Wind        Temp  DP   Baro     Rain since   Rain past  Vis(m), Cloud(base in m), Weather
  local        km/h                         9am  last   hr   10m    
Thu 09:00    C  0/  0   5.7  5.6  1029.2    0.0   0.0   0.0   0.0   ----- 
Thu 09:30    C  0/  0   8.0  6.0  1029.3    0.0   0.0   0.0   0.0   ----- 
Thu 10:00    C  0/  7   8.8  5.5  1029.3    0.0   0.0   0.0   0.0   ----- 
Thu 10:30    E  2/  7  11.0  6.2  1029.2    0.0   0.0   0.0   0.0   ----- 
Thu 11:00    C  0/  0  12.2  6.0  1029.1    0.0   0.0   0.0   0.0   ----- 
Thu 11:30    C  0/  0  14.0  6.1  1028.7    0.0   0.0   0.0   0.0   ----- 
Thu 12:00    C  0/  0  13.8  5.9  1028.3    0.0   0.0   0.0   0.0   ----- 
Thu 12:30  WSW  6/ 13  14.4  6.0  1027.9    0.0   0.0   0.0   0.0   ----- 
Thu 13:00  WSW  6/ 13  14.9  4.9  1027.5    0.0   0.0   0.0   0.0   ----- 
Thu 13:30  SSW  9/ 13  14.7  3.8  1027.1    0.0   0.0   0.0   0.0   ----- 
Thu 14:00    S  7/ 13  15.1  3.9  1026.7    0.0   0.0   0.0   0.0   ----- 

PARKES AIRPORT AWS

Site: 065068
Alt: 323.3m
7km E of PARKES


  Time     Wind        Temp  DP   Baro     Rain since   Rain past  Vis(m), Cloud(base in m), Weather
  local        km/h                         9am  last   hr   10m    
Thu 09:00   NE  2/  6   8.3  5.8  1029.2    0.2   0.0   0.0   0.0   10000 
Thu 09:30  NNE  6/  7  10.3  6.3  1029.3    0.0   0.0   0.0   0.0   10000 
Thu 10:00    C  0/  0  12.5  5.7  1029.2    0.0   0.0   0.0   0.0   10000 
Thu 10:30   NW  7/  9  12.7  6.3  1029.2    0.0   0.0   0.0   0.0   10000 
Thu 11:00    C  0/  6  13.9  5.5  1029.1    0.0   0.0   0.0   0.0   10000 
Thu 11:30    W  4/  7  15.0  6.0  1028.8    0.0   0.0   0.0   0.0   10000 
Thu 12:00  SSW  6/ 11  14.4  4.4  1028.3    0.0   0.0   0.0   0.0   10000 
Thu 12:30  ESE  6/ 11  15.4  5.3  1027.8    0.0   0.0   0.0   0.0   10000 
Thu 13:00  SSW  7/ 13  15.2  2.1  1027.5    0.0   0.0   0.0   0.0   10000 
Thu 13:30    W  7/ 11  15.6  3.4  1027.2    0.0   0.0   0.0   0.0   10000 
Thu 14:00  WNW  2/  9  16.1  2.2  1026.8    0.0   0.0   0.0   0.0   10000